Time;durP1;ratioP1;P1;durP2;ratioP2;P2;SDS_P1;SDS_P2;PMS_P1;PMS_P2;Temp;Humidity;BMP_temperature;BMP_pressure;BME280_temperature;BME280_humidity;BME280_pressure;Samples;Min_cycle;Max_cycle;Signal;HPM_P1;HPM_P2
2022/09/16 00:01:35;;;;;;;5.68;1.83;;;11.30;99.90;;;;;;5133870;27;20129;-77
2022/09/16 00:04:01;;;;;;;7.38;1.70;;;11.30;99.90;;;;;;5135088;27;20455;-77
2022/09/16 00:06:28;;;;;;;4.55;0.90;;;11.40;99.90;;;;;;5133854;27;20096;-77
2022/09/16 00:08:57;;;;;;;8.95;1.20;;;11.40;99.90;;;;;;5133408;27;20123;-76
2022/09/16 00:11:23;;;;;;;4.10;1.00;;;11.40;99.90;;;;;;5116256;27;20052;-77
2022/09/16 00:13:49;;;;;;;5.22;1.00;;;11.40;99.90;;;;;;5133630;27;20386;-77
2022/09/16 00:16:22;;;;;;;3.78;1.00;;;11.40;99.90;;;;;;5116241;27;20168;-77
2022/09/16 00:18:53;;;;;;;4.07;0.88;;;11.40;99.90;;;;;;5133370;27;20404;-77
2022/09/16 00:21:19;;;;;;;4.53;1.05;;;11.40;99.90;;;;;;5133950;27;20035;-77
2022/09/16 00:23:45;;;;;;;4.88;1.00;;;11.40;99.90;;;;;;5131022;27;20038;-77
2022/09/16 00:26:10;;;;;;;7.25;1.13;;;11.40;99.90;;;;;;5116397;27;20167;-77
2022/09/16 00:28:36;;;;;;;7.07;1.38;;;11.40;99.90;;;;;;5133189;27;20639;-77
2022/09/16 00:31:03;;;;;;;6.60;0.90;;;11.40;99.90;;;;;;5116303;27;20078;-76
2022/09/16 00:33:29;;;;;;;5.18;0.98;;;11.40;99.90;;;;;;5133328;27;20082;-76
2022/09/16 00:36:11;;;;;;;5.13;1.40;;;11.40;99.90;;;;;;5134217;27;20082;-76
2022/09/16 00:38:38;;;;;;;6.28;1.20;;;11.40;99.90;;;;;;5134225;27;20092;-76
2022/09/16 00:41:05;;;;;;;5.65;1.20;;;11.30;99.90;;;;;;5115855;27;20039;-76
2022/09/16 00:43:51;;;;;;;7.32;1.25;;;11.30;99.90;;;;;;5132834;27;20045;-76
2022/09/16 00:46:22;;;;;;;4.88;1.02;;;11.20;99.90;;;;;;5134184;27;20436;-76
2022/09/16 00:48:48;;;;;;;5.20;1.02;;;11.10;99.90;;;;;;5132758;27;20051;-76
2022/09/16 00:51:16;;;;;;;7.53;1.15;;;11.10;99.90;;;;;;5115657;27;20043;-76
2022/09/16 00:53:50;;;;;;;6.30;1.05;;;11.10;99.90;;;;;;5113818;27;20187;-76
2022/09/16 00:56:22;;;;;;;7.13;1.50;;;11.00;99.90;;;;;;5133789;27;20458;-76
2022/09/16 00:59:12;;;;;;;4.88;1.00;;;11.10;99.90;;;;;;5132974;27;20049;-76
2022/09/16 01:01:43;;;;;;;5.15;1.38;;;11.10;99.90;;;;;;5132710;27;20118;-76
2022/09/16 01:04:15;;;;;;;6.82;0.93;;;11.10;99.90;;;;;;5133932;27;20076;-76
2022/09/16 01:06:41;;;;;;;11.23;1.40;;;11.10;99.90;;;;;;5132471;28;20042;-76
2022/09/16 01:09:07;;;;;;;6.85;1.02;;;11.10;99.90;;;;;;5132792;28;20073;-76
2022/09/16 01:11:33;;;;;;;4.13;0.90;;;11.00;99.90;;;;;;5132718;28;20471;-76
2022/09/16 01:14:52;;;;;;;6.03;1.17;;;10.90;99.90;;;;;;5132567;28;20083;-76
2022/09/16 01:17:09;;;;;;;6.95;1.50;;;10.80;99.90;;;;;;5132352;28;20043;-76
2022/09/16 01:20:03;;;;;;;5.47;1.13;;;10.70;99.90;;;;;;5132562;28;20035;-77
2022/09/16 01:22:38;;;;;;;6.20;1.17;;;10.60;99.90;;;;;;5133701;27;20043;-76
2022/09/16 01:25:48;;;;;;;3.63;1.10;;;10.60;99.90;;;;;;5113355;28;20084;-76
2022/09/16 01:29:02;;;;;;;7.43;1.05;;;10.50;99.90;;;;;;5107406;27;20122;-76
2022/09/16 01:32:01;;;;;;;6.60;1.20;;;10.50;99.90;;;;;;5123476;28;20054;-76
2022/09/16 01:34:56;;;;;;;4.72;1.10;;;10.40;99.90;;;;;;5119319;27;20047;-76
2022/09/16 01:37:47;;;;;;;5.78;1.15;;;10.40;99.90;;;;;;5136470;27;20049;-76
2022/09/16 01:40:22;;;;;;;9.35;1.60;;;10.40;99.90;;;;;;5137785;27;20043;-76
2022/09/16 01:42:51;;;;;;;6.07;1.63;;;10.40;99.90;;;;;;5136270;27;20043;-76
2022/09/16 01:45:29;;;;;;;5.45;1.05;;;10.40;99.90;;;;;;5136312;27;20039;-76
2022/09/16 01:48:13;;;;;;;2.78;0.90;;;10.40;99.90;;;;;;5136165;27;20039;-77
2022/09/16 01:51:12;;;;;;;6.68;1.30;;;10.50;99.90;;;;;;5136183;27;20050;-77
2022/09/16 01:54:02;;;;;;;4.53;1.13;;;10.50;99.90;;;;;;5117210;27;20039;-76
2022/09/16 01:56:55;;;;;;;4.78;1.52;;;10.60;99.90;;;;;;5135902;27;20051;-77
2022/09/16 01:59:35;;;;;;;6.25;1.40;;;10.60;99.90;;;;;;5119154;27;20074;-77
2022/09/16 02:02:26;;;;;;;9.52;1.60;;;10.60;99.90;;;;;;5136064;27;20466;-77
2022/09/16 02:04:57;;;;;;;8.98;1.50;;;10.60;99.90;;;;;;5137368;27;20031;-77
2022/09/16 02:07:31;;;;;;;3.65;1.30;;;10.60;99.90;;;;;;5135955;27;20047;-76
2022/09/16 02:10:20;;;;;;;6.90;2.13;;;10.50;99.90;;;;;;5118936;27;20370;-77
2022/09/16 02:12:49;;;;;;;2.72;1.05;;;10.50;99.90;;;;;;5136163;27;20118;-76
2022/09/16 02:15:21;;;;;;;8.23;1.33;;;10.40;99.90;;;;;;5118781;27;20369;-76
2022/09/16 02:18:01;;;;;;;5.75;1.35;;;10.30;99.90;;;;;;5118729;27;20120;-76
2022/09/16 02:20:30;;;;;;;5.13;1.30;;;10.20;99.90;;;;;;5118677;27;20375;-76
2022/09/16 02:23:05;;;;;;;5.88;1.10;;;10.20;99.90;;;;;;5135845;27;20039;-76
2022/09/16 02:25:36;;;;;;;9.00;1.75;;;10.10;99.90;;;;;;5133411;27;20039;-77
2022/09/16 02:28:11;;;;;;;6.05;1.80;;;10.00;99.90;;;;;;5135754;27;20448;-77
2022/09/16 02:30:44;;;;;;;7.65;1.15;;;10.00;99.90;;;;;;5136669;27;20043;-76
2022/09/16 02:33:12;;;;;;;6.15;1.42;;;9.90;99.90;;;;;;5136910;27;20379;-76
2022/09/16 02:35:40;;;;;;;9.38;1.58;;;9.90;99.90;;;;;;5135509;27;20448;-76
2022/09/16 02:38:19;;;;;;;7.05;1.48;;;9.90;99.90;;;;;;5136855;27;20046;-76
2022/09/16 02:41:00;;;;;;;8.05;1.80;;;9.90;99.90;;;;;;5135215;27;20502;-76
2022/09/16 02:43:26;;;;;;;7.18;1.48;;;9.90;99.90;;;;;;5135161;27;20043;-76
2022/09/16 02:46:37;;;;;;;5.95;1.52;;;9.90;99.90;;;;;;5135786;27;20126;-76
2022/09/16 02:49:26;;;;;;;4.40;1.20;;;9.90;99.90;;;;;;5136458;27;20062;-76
2022/09/16 02:52:16;;;;;;;7.30;1.40;;;9.80;99.90;;;;;;5135187;27;20043;-76
2022/09/16 02:54:54;;;;;;;7.53;1.40;;;9.70;99.90;;;;;;5132615;27;20570;-76
2022/09/16 02:57:20;;;;;;;6.13;1.33;;;9.70;99.90;;;;;;5134852;27;20050;-76
2022/09/16 02:59:47;;;;;;;7.15;1.30;;;9.70;99.90;;;;;;5118001;27;20034;-76
2022/09/16 03:02:13;;;;;;;4.40;1.40;;;9.60;99.90;;;;;;5136055;27;20039;-77
2022/09/16 03:04:38;;;;;;;5.20;1.45;;;9.60;99.90;;;;;;5135082;27;20039;-76
2022/09/16 03:07:08;;;;;;;3.60;1.45;;;9.50;99.90;;;;;;5134938;27;20581;-76
2022/09/16 03:09:37;;;;;;;2.80;1.13;;;9.50;99.90;;;;;;5134971;27;20043;-76
2022/09/16 03:12:09;;;;;;;8.25;1.65;;;9.50;99.90;;;;;;5117458;27;20039;-76
2022/09/16 03:15:19;;;;;;;6.80;1.98;;;9.50;99.90;;;;;;5117713;27;20416;-76
2022/09/16 03:18:19;;;;;;;9.18;2.88;;;9.50;99.90;;;;;;5052241;28;20493;-77
2022/09/16 03:20:51;;;;;;;7.80;1.90;;;9.50;99.90;;;;;;5024576;28;20206;-77
2022/09/16 03:23:27;;;;;;;6.90;1.73;;;9.50;99.90;;;;;;5112818;27;20047;-76
2022/09/16 03:26:14;;;;;;;8.07;1.92;;;9.50;99.90;;;;;;5116157;27;20047;-77
2022/09/16 03:29:03;;;;;;;6.65;1.80;;;9.60;99.90;;;;;;5135659;27;20045;-76
2022/09/16 03:31:32;;;;;;;10.38;1.92;;;9.60;99.90;;;;;;5134472;27;20538;-77
2022/09/16 03:34:07;;;;;;;5.97;1.55;;;9.60;99.90;;;;;;5117073;27;20052;-77
2022/09/16 03:36:39;;;;;;;5.63;1.95;;;9.60;99.90;;;;;;5135486;27;20042;-77
2022/09/16 03:39:06;;;;;;;5.18;1.88;;;9.60;99.90;;;;;;5134040;27;20500;-76
2022/09/16 03:41:33;;;;;;;6.80;2.05;;;9.50;99.90;;;;;;5116972;27;20035;-77
2022/09/16 03:43:59;;;;;;;7.95;1.90;;;9.50;99.90;;;;;;5134036;27;20046;-77
2022/09/16 03:46:27;;;;;;;7.65;1.90;;;9.50;99.90;;;;;;5134249;27;20039;-76
2022/09/16 03:48:54;;;;;;;9.73;1.73;;;9.50;99.90;;;;;;5135365;27;20043;-77
2022/09/16 03:51:21;;;;;;;6.43;1.60;;;9.40;99.90;;;;;;5135214;27;20376;-76
2022/09/16 03:53:46;;;;;;;6.03;1.92;;;9.50;99.90;;;;;;5133056;27;20066;-76
2022/09/16 03:56:12;;;;;;;9.43;1.40;;;9.40;99.90;;;;;;5133947;27;20114;-77
2022/09/16 03:58:38;;;;;;;4.38;1.30;;;9.40;99.90;;;;;;5116768;27;20039;-77
2022/09/16 04:01:04;;;;;;;10.68;1.60;;;9.40;99.90;;;;;;5133926;27;20455;-77
2022/09/16 04:03:30;;;;;;;8.18;1.52;;;9.40;99.90;;;;;;5135058;27;20035;-76
2022/09/16 04:05:56;;;;;;;8.55;1.95;;;9.40;99.90;;;;;;5133842;27;20051;-76
2022/09/16 04:08:23;;;;;;;8.10;1.33;;;9.40;99.90;;;;;;5134878;27;20367;-76
2022/09/16 04:11:04;;;;;;;8.15;2.33;;;9.40;99.90;;;;;;5134756;27;20043;-77
2022/09/16 04:13:34;;;;;;;8.07;1.50;;;9.30;99.90;;;;;;5133467;27;20122;-76
2022/09/16 04:16:01;;;;;;;4.05;1.13;;;9.30;99.90;;;;;;5134667;27;20483;-76
2022/09/16 04:18:29;;;;;;;5.20;1.50;;;9.30;99.90;;;;;;5133331;27;20467;-76
2022/09/16 04:21:00;;;;;;;7.85;1.63;;;9.20;99.90;;;;;;5133590;27;20080;-76
2022/09/16 04:23:27;;;;;;;6.85;1.63;;;9.20;99.90;;;;;;5115964;27;20081;-76
2022/09/16 04:26:02;;;;;;;9.75;1.60;;;9.20;99.90;;;;;;5133038;27;20124;-77
2022/09/16 04:28:29;;;;;;;5.57;1.33;;;9.20;99.90;;;;;;5116093;27;20095;-77
2022/09/16 04:31:02;;;;;;;4.60;1.17;;;9.10;99.90;;;;;;5116290;27;20047;-77
2022/09/16 04:33:30;;;;;;;7.07;1.48;;;9.10;99.90;;;;;;5134461;27;20115;-77
2022/09/16 04:36:07;;;;;;;8.93;1.20;;;9.10;99.90;;;;;;5134652;27;20047;-76
2022/09/16 04:38:34;;;;;;;5.57;1.20;;;9.10;99.90;;;;;;5133258;27;20031;-76
2022/09/16 04:41:08;;;;;;;9.55;2.13;;;9.10;99.90;;;;;;5116147;27;20375;-77
2022/09/16 04:43:34;;;;;;;6.20;2.03;;;9.00;99.90;;;;;;5132975;27;20042;-77
2022/09/16 04:46:00;;;;;;;8.20;1.52;;;9.00;99.90;;;;;;5132893;27;20087;-77
2022/09/16 04:48:27;;;;;;;10.35;2.22;;;9.00;99.90;;;;;;5132917;27;20095;-77
2022/09/16 04:50:53;;;;;;;6.95;1.50;;;8.90;99.90;;;;;;5133960;27;20475;-77
2022/09/16 04:53:20;;;;;;;11.85;1.85;;;8.90;99.90;;;;;;5134272;27;20035;-77
2022/09/16 04:55:47;;;;;;;6.38;1.80;;;8.90;99.90;;;;;;5130486;27;20511;-77
2022/09/16 04:58:13;;;;;;;5.35;1.88;;;8.90;99.90;;;;;;5132879;27;20506;-77
2022/09/16 05:00:39;;;;;;;10.40;2.88;;;8.90;99.90;;;;;;5134109;27;20067;-77
2022/09/16 05:03:06;;;;;;;8.68;1.65;;;8.90;99.90;;;;;;5133991;27;20054;-77
2022/09/16 05:05:32;;;;;;;9.10;1.88;;;8.90;99.90;;;;;;5132704;28;20540;-77
2022/09/16 05:07:58;;;;;;;6.88;2.00;;;8.90;99.90;;;;;;5132348;27;20036;-77
2022/09/16 05:10:24;;;;;;;11.90;1.88;;;8.90;99.90;;;;;;5132861;28;20047;-77
2022/09/16 05:12:54;;;;;;;12.23;2.17;;;9.00;99.90;;;;;;5132616;28;20035;-77
2022/09/16 05:15:20;;;;;;;6.00;1.70;;;9.00;99.90;;;;;;5133766;27;20156;-77
2022/09/16 05:17:46;;;;;;;12.57;2.47;;;8.90;99.90;;;;;;5132509;28;20304;-77
2022/09/16 05:20:13;;;;;;;11.05;1.98;;;8.90;99.90;;;;;;5132744;28;20125;-77
2022/09/16 05:22:39;;;;;;;7.13;1.58;;;8.80;99.90;;;;;;5132789;28;20474;-77
2022/09/16 05:25:05;;;;;;;9.73;2.00;;;8.90;99.90;;;;;;5113242;28;20117;-77
2022/09/16 05:27:31;;;;;;;8.40;1.83;;;8.90;99.90;;;;;;5132768;28;20121;-77
2022/09/16 05:29:57;;;;;;;6.88;1.40;;;8.90;99.90;;;;;;5115339;28;20055;-77
2022/09/16 05:32:23;;;;;;;9.80;2.15;;;8.90;99.90;;;;;;5132357;28;20043;-77
2022/09/16 05:34:49;;;;;;;10.55;1.88;;;8.90;99.90;;;;;;5115324;28;20043;-77
2022/09/16 05:37:16;;;;;;;9.27;1.88;;;9.00;99.90;;;;;;5132266;28;20043;-77
2022/09/16 05:39:42;;;;;;;9.70;1.48;;;9.00;99.90;;;;;;5133813;27;20038;-77
2022/09/16 05:42:08;;;;;;;10.23;1.60;;;9.00;99.90;;;;;;5132290;28;20035;-77
2022/09/16 05:44:34;;;;;;;9.35;1.63;;;9.00;99.90;;;;;;5132571;28;20462;-77
2022/09/16 05:47:01;;;;;;;9.98;1.63;;;9.10;99.90;;;;;;5132157;28;20077;-77
2022/09/16 05:49:27;;;;;;;16.27;2.10;;;9.10;99.90;;;;;;5115455;28;20130;-77
2022/09/16 05:51:53;;;;;;;6.78;1.40;;;9.10;99.90;;;;;;5133771;27;20118;-77
2022/09/16 05:54:22;;;;;;;7.20;1.52;;;9.10;99.90;;;;;;5131513;27;20092;-77
2022/09/16 05:56:48;;;;;;;11.40;3.25;;;9.10;99.90;;;;;;5132084;28;20039;-77
2022/09/16 05:59:15;;;;;;;6.50;1.45;;;9.20;99.90;;;;;;5132184;28;20039;-78
2022/09/16 06:01:41;;;;;;;10.02;1.88;;;9.20;99.90;;;;;;5132185;28;20043;-77
2022/09/16 06:04:10;;;;;;;7.88;2.33;;;9.30;99.90;;;;;;5132150;28;20035;-77
2022/09/16 06:06:42;;;;;;;8.95;1.67;;;9.40;99.90;;;;;;5133393;27;20130;-77
2022/09/16 06:09:09;;;;;;;10.45;1.63;;;9.50;99.90;;;;;;5133489;27;20043;-76
2022/09/16 06:11:38;;;;;;;9.27;1.48;;;9.70;99.90;;;;;;5132386;28;20062;-76
2022/09/16 06:14:04;;;;;;;6.63;1.23;;;9.90;99.90;;;;;;5132282;28;20132;-76
2022/09/16 06:16:31;;;;;;;9.88;1.48;;;10.10;99.90;;;;;;5114914;28;20047;-76
2022/09/16 06:19:01;;;;;;;6.40;1.10;;;10.50;99.90;;;;;;5132304;27;20043;-76
2022/09/16 06:21:28;;;;;;;3.35;0.93;;;10.80;99.90;;;;;;5118530;27;20180;-76
2022/09/16 06:23:54;;;;;;;8.63;1.27;;;11.10;99.90;;;;;;5134015;27;20035;-75
2022/09/16 06:26:23;;;;;;;7.45;1.13;;;11.60;99.90;;;;;;5135602;27;20045;-75
2022/09/16 06:28:50;;;;;;;16.45;1.60;;;12.00;99.90;;;;;;5119029;27;20042;-74
2022/09/16 06:31:25;;;;;;;9.23;1.30;;;12.10;99.90;;;;;;5136381;27;20421;-75
2022/09/16 06:33:52;;;;;;;10.45;2.17;;;12.10;99.90;;;;;;5136881;27;20035;-75
2022/09/16 06:36:28;;;;;;;6.18;0.90;;;12.20;99.90;;;;;;5136321;27;20099;-75
2022/09/16 06:38:54;;;;;;;8.57;1.48;;;12.30;99.90;;;;;;5135623;27;20046;-75
2022/09/16 06:41:21;;;;;;;4.10;0.98;;;12.30;99.90;;;;;;5135271;27;20039;-75
2022/09/16 06:43:50;;;;;;;8.00;1.35;;;12.30;99.90;;;;;;5135383;27;20046;-75
2022/09/16 06:46:22;;;;;;;8.70;1.65;;;12.20;99.90;;;;;;5135658;27;20066;-75
2022/09/16 06:48:50;;;;;;;10.50;1.13;;;12.00;99.90;;;;;;5136646;27;20436;-75
2022/09/16 06:51:28;;;;;;;11.70;1.42;;;12.00;99.90;;;;;;5135098;27;20039;-75
2022/09/16 06:54:00;;;;;;;11.48;1.88;;;11.90;99.90;;;;;;5132166;27;20027;-75
2022/09/16 06:56:26;;;;;;;7.78;1.33;;;11.80;99.90;;;;;;5131637;27;20533;-75
2022/09/16 06:58:54;;;;;;;11.52;1.67;;;11.80;99.90;;;;;;5135063;27;20081;-75
2022/09/16 07:01:26;;;;;;;9.70;1.75;;;11.80;99.90;;;;;;5134562;27;20043;-75
2022/09/16 07:03:53;;;;;;;7.65;1.67;;;11.90;99.90;;;;;;5134761;27;20043;-75
2022/09/16 07:06:21;;;;;;;8.65;1.50;;;11.90;99.90;;;;;;5134649;27;20371;-75
2022/09/16 07:08:47;;;;;;;5.60;1.20;;;11.90;99.90;;;;;;5134729;27;20103;-75
2022/09/16 07:11:18;;;;;;;5.45;1.60;;;11.90;99.90;;;;;;5134902;27;20395;-75
2022/09/16 07:13:47;;;;;;;10.85;1.60;;;11.90;99.90;;;;;;5117771;27;20110;-75
2022/09/16 07:16:21;;;;;;;10.30;1.48;;;11.90;99.90;;;;;;5134508;27;20047;-75
2022/09/16 07:19:06;;;;;;;9.50;1.58;;;11.90;99.90;;;;;;5135561;27;20031;-75
2022/09/16 07:21:33;;;;;;;8.57;1.50;;;12.00;99.90;;;;;;5135877;27;20082;-75
2022/09/16 07:24:03;;;;;;;6.35;1.35;;;12.10;99.90;;;;;;5132183;27;20869;-75
2022/09/16 07:26:34;;;;;;;7.47;1.17;;;12.20;99.90;;;;;;5135696;27;20420;-75
2022/09/16 07:29:02;;;;;;;10.18;1.83;;;12.30;99.90;;;;;;5135599;27;20039;-76
2022/09/16 07:31:31;;;;;;;9.20;1.25;;;12.40;99.90;;;;;;5133105;27;20402;-76
2022/09/16 07:34:00;;;;;;;6.78;1.48;;;12.60;99.90;;;;;;5130918;27;20070;-76
2022/09/16 07:36:29;;;;;;;6.10;1.23;;;12.70;99.90;;;;;;5114337;27;20088;-76
2022/09/16 07:38:57;;;;;;;6.82;1.58;;;12.90;99.90;;;;;;5130545;27;20078;-76
2022/09/16 07:41:26;;;;;;;4.55;1.05;;;13.00;99.90;;;;;;5129764;27;20046;-76
2022/09/16 07:43:58;;;;;;;4.75;1.20;;;13.10;99.90;;;;;;5128261;27;20112;-77
2022/09/16 07:46:26;;;;;;;8.90;1.38;;;13.30;99.90;;;;;;5127006;27;20518;-77
2022/09/16 07:48:53;;;;;;;6.05;1.50;;;13.50;99.90;;;;;;5132419;27;20039;-78
2022/09/16 07:51:24;;;;;;;5.38;1.00;;;13.60;99.90;;;;;;5130472;27;20497;-77
2022/09/16 07:54:03;;;;;;;7.55;1.10;;;13.70;99.90;;;;;;5129634;27;20869;-76
2022/09/16 07:56:33;;;;;;;7.25;1.25;;;13.80;99.90;;;;;;5131905;27;20039;-76
2022/09/16 07:58:59;;;;;;;7.38;1.20;;;13.90;99.90;;;;;;5130120;27;20483;-77
2022/09/16 08:01:26;;;;;;;8.18;1.23;;;14.10;99.90;;;;;;5131010;27;20038;-76
2022/09/16 08:03:52;;;;;;;12.55;2.03;;;14.20;99.90;;;;;;5133630;27;20027;-75
2022/09/16 08:06:22;;;;;;;7.80;1.55;;;14.40;99.90;;;;;;5130275;27;20129;-77
2022/09/16 08:08:52;;;;;;;11.50;1.27;;;14.50;99.90;;;;;;5129001;27;20113;-78
2022/09/16 08:11:20;;;;;;;8.82;1.40;;;14.80;99.90;;;;;;5132804;27;20043;-78
2022/09/16 08:13:46;;;;;;;11.70;1.30;;;15.20;99.90;;;;;;5127550;27;20107;-78
2022/09/16 08:16:18;;;;;;;9.88;1.70;;;15.70;99.90;;;;;;5132246;27;20464;-75
2022/09/16 08:18:45;;;;;;;9.60;1.52;;;15.80;99.90;;;;;;5131495;27;20043;-76
2022/09/16 08:21:17;;;;;;;10.98;1.55;;;15.50;99.90;;;;;;5132661;27;20044;-78
2022/09/16 08:23:43;;;;;;;9.43;2.03;;;15.20;99.90;;;;;;5130355;27;20027;-78
2022/09/16 08:26:11;;;;;;;15.25;1.95;;;15.20;99.90;;;;;;5130726;27;20542;-79
2022/09/16 08:28:40;;;;;;;9.40;2.00;;;15.30;99.90;;;;;;5127898;27;20052;-78
2022/09/16 08:31:06;;;;;;;6.20;1.70;;;15.30;99.90;;;;;;5129589;27;20165;-78
2022/09/16 08:33:32;;;;;;;9.63;2.33;;;15.60;99.90;;;;;;5129839;27;20043;-77
2022/09/16 08:36:07;;;;;;;10.32;2.42;;;16.10;99.90;;;;;;5128651;27;20050;-77
2022/09/16 08:38:33;;;;;;;12.45;2.35;;;16.50;99.90;;;;;;5131445;27;20387;-78
2022/09/16 08:41:23;;;;;;;10.57;1.85;;;17.00;99.90;;;;;;5131268;27;20035;-78
2022/09/16 08:43:58;;;;;;;8.93;2.30;;;17.50;99.90;;;;;;5129284;27;20027;-77
2022/09/16 08:46:42;;;;;;;11.38;1.58;;;17.90;99.90;;;;;;5127482;27;20052;-77
2022/09/16 08:49:32;;;;;;;7.20;1.85;;;18.30;99.90;;;;;;5130426;27;20410;-78
2022/09/16 08:52:02;;;;;;;7.63;1.67;;;18.70;99.90;;;;;;5131450;27;20092;-79
2022/09/16 08:54:45;;;;;;;4.63;1.35;;;19.00;99.90;;;;;;5128584;27;20039;-76
2022/09/16 08:57:20;;;;;;;6.40;1.30;;;19.10;99.90;;;;;;5128068;27;20039;-78
2022/09/16 08:59:52;;;;;;;6.53;1.23;;;19.20;99.90;;;;;;5132108;27;20050;-77
2022/09/16 09:02:38;;;;;;;7.85;1.55;;;19.20;99.90;;;;;;5127422;27;20131;-81
2022/09/16 09:05:39;;;;;;;8.85;2.45;;;19.20;99.90;;;;;;5132090;27;20419;-79
2022/09/16 09:08:34;;;;;;;6.45;1.35;;;19.20;99.90;;;;;;5100421;28;20092;-80
2022/09/16 09:11:28;;;;;;;6.43;1.50;;;19.30;99.90;;;;;;5131954;28;20129;-79
2022/09/16 09:14:12;;;;;;;4.82;1.30;;;19.70;99.90;;;;;;5126761;28;20680;-80
2022/09/16 09:17:13;;;;;;;9.82;1.83;;;19.80;98.10;;;;;;5130723;28;20414;-79
2022/09/16 09:20:09;;;;;;;6.03;1.50;;;19.50;97.90;;;;;;5099086;28;20028;-79
2022/09/16 09:23:03;;;;;;;10.40;1.33;;;18.90;97.70;;;;;;5126426;28;20035;-79
2022/09/16 09:25:45;;;;;;;7.10;2.00;;;18.30;99.10;;;;;;5122930;28;20046;-78
2022/09/16 09:28:50;;;;;;;10.15;1.90;;;17.80;99.90;;;;;;5128657;27;20057;-78
2022/09/16 09:31:27;;;;;;;8.43;1.30;;;17.80;99.90;;;;;;5124196;28;20476;-79
2022/09/16 09:34:46;;;;;;;7.68;1.30;;;18.50;99.90;;;;;;5128875;28;20042;-78
2022/09/16 09:37:37;;;;;;;6.30;1.40;;;19.20;99.90;;;;;;5097057;28;20100;-79
2022/09/16 09:40:18;;;;;;;8.65;1.30;;;19.90;98.50;;;;;;5121056;28;20051;-77
2022/09/16 09:43:24;;;;;;;9.82;2.33;;;20.30;97.00;;;;;;5131229;28;20108;-78
2022/09/16 09:46:18;;;;;;;7.18;1.30;;;20.50;95.90;;;;;;5103404;28;20119;-78
2022/09/16 09:48:49;;;;;;;7.80;1.52;;;20.80;94.40;;;;;;5129454;28;20055;-77
2022/09/16 09:51:36;;;;;;;5.47;1.60;;;20.80;91.50;;;;;;5125594;28;20118;-77
2022/09/16 09:54:24;;;;;;;6.13;1.35;;;20.20;91.90;;;;;;5131447;27;20868;-77
2022/09/16 09:57:09;;;;;;;9.02;1.60;;;19.60;92.90;;;;;;5135884;27;20082;-76
2022/09/16 10:00:13;;;;;;;11.40;1.70;;;18.80;93.20;;;;;;5136961;27;20659;-78
2022/09/16 10:02:41;;;;;;;9.80;1.98;;;17.80;94.90;;;;;;5132864;27;20046;-78
2022/09/16 10:05:27;;;;;;;14.90;1.52;;;17.80;96.20;;;;;;5108955;27;20031;-76
2022/09/16 10:08:20;;;;;;;6.13;1.20;;;18.30;95.20;;;;;;5130904;27;20043;-78
2022/09/16 10:10:53;;;;;;;8.75;1.63;;;18.80;95.00;;;;;;5128431;27;20043;-75
2022/09/16 10:13:20;;;;;;;5.32;1.27;;;19.30;94.10;;;;;;5128448;27;20037;-78
2022/09/16 10:15:47;;;;;;;8.00;1.58;;;19.50;93.20;;;;;;5134579;27;20047;-78
2022/09/16 10:18:31;;;;;;;6.05;2.20;;;19.70;93.50;;;;;;5126793;27;20027;-77
2022/09/16 10:21:00;;;;;;;9.70;1.70;;;20.30;93.70;;;;;;5132908;27;20074;-80
2022/09/16 10:23:26;;;;;;;10.53;1.40;;;20.30;92.00;;;;;;5130675;27;20043;-79
2022/09/16 10:26:20;;;;;;;10.35;1.70;;;20.00;90.60;;;;;;5133173;27;20046;-76
2022/09/16 10:29:21;;;;;;;8.20;1.42;;;20.00;92.30;;;;;;5117244;27;20256;-78
2022/09/16 10:31:47;;;;;;;6.78;1.60;;;20.20;91.10;;;;;;5047835;28;20049;-76
2022/09/16 10:34:43;;;;;;;12.60;2.35;;;20.10;91.30;;;;;;5089791;27;20043;-78
2022/09/16 10:37:12;;;;;;;6.05;1.60;;;19.70;92.20;;;;;;5118864;27;20052;-80
2022/09/16 10:39:42;;;;;;;11.33;1.17;;;19.80;92.20;;;;;;5130115;27;20046;-77
2022/09/16 10:42:23;;;;;;;9.05;1.48;;;19.80;90.20;;;;;;5135583;27;20636;-75
2022/09/16 10:44:52;;;;;;;7.65;1.40;;;19.90;89.90;;;;;;5118247;27;20031;-77
2022/09/16 10:47:23;;;;;;;5.57;1.17;;;20.00;86.30;;;;;;5137017;27;20051;-79
2022/09/16 10:49:52;;;;;;;6.05;1.50;;;20.20;88.10;;;;;;5135417;27;20425;-78
2022/09/16 10:52:22;;;;;;;7.00;1.63;;;20.50;88.30;;;;;;5136611;27;20103;-79
2022/09/16 10:54:48;;;;;;;;;;;20.70;88.70;;;;;;5123398;27;20056;-79
2022/09/16 10:57:29;;;;;;;9.18;1.95;;;20.80;90.10;;;;;;5109872;28;19926;-76
2022/09/16 11:00:14;;;;;;;9.57;1.92;;;20.50;88.00;;;;;;5124988;27;20114;-78
2022/09/16 11:03:15;;;;;;;5.63;1.63;;;20.50;88.00;;;;;;5135692;27;20046;-79
2022/09/16 11:06:19;;;;;;;7.47;1.60;;;20.10;89.70;;;;;;5136142;27;20085;-77
2022/09/16 11:09:03;;;;;;;6.50;1.38;;;19.90;90.70;;;;;;5105010;27;20043;-79
2022/09/16 11:11:45;;;;;;;10.73;1.63;;;19.70;91.60;;;;;;5135403;27;20043;-76
2022/09/16 11:14:56;;;;;;;5.72;1.92;;;19.50;88.60;;;;;;5135173;27;20073;-81
2022/09/16 11:17:51;;;;;;;9.20;1.58;;;18.90;89.10;;;;;;5036097;28;20145;-78
2022/09/16 11:20:26;;;;;;;8.18;1.70;;;18.50;89.90;;;;;;5117274;27;20130;-82
2022/09/16 11:23:23;;;;;;;10.07;1.70;;;18.20;91.10;;;;;;5136274;27;20050;-80
2022/09/16 11:25:48;;;;;;;4.15;1.20;;;18.60;91.90;;;;;;5133587;27;20047;-81
2022/09/16 11:28:36;;;;;;;8.43;1.40;;;19.00;91.60;;;;;;5135029;27;20079;-77
2022/09/16 11:31:24;;;;;;;5.38;1.10;;;18.80;90.30;;;;;;5136192;27;20042;-81
2022/09/16 11:34:21;;;;;;;5.07;1.48;;;18.20;90.30;;;;;;5136092;27;20046;-80
2022/09/16 11:36:59;;;;;;;4.50;1.02;;;18.00;89.50;;;;;;5134789;27;20075;-79
2022/09/16 11:39:59;;;;;;;7.40;1.65;;;17.90;90.10;;;;;;5134948;27;20406;-79
2022/09/16 11:42:40;;;;;;;4.70;1.00;;;18.00;91.10;;;;;;5136406;27;20379;-80
2022/09/16 11:45:26;;;;;;;6.05;1.27;;;18.20;91.30;;;;;;5134556;27;20047;-81
2022/09/16 11:48:18;;;;;;;8.38;1.77;;;18.30;91.50;;;;;;5133848;27;20043;-81
2022/09/16 11:51:16;;;;;;;10.27;1.65;;;18.40;91.70;;;;;;5136183;27;20043;-81
2022/09/16 11:54:06;;;;;;;7.28;1.20;;;18.00;93.50;;;;;;5118078;27;20039;-79
2022/09/16 11:56:52;;;;;;;5.90;1.40;;;17.30;95.50;;;;;;5135452;27;20109;-77
2022/09/16 11:59:27;;;;;;;8.52;1.67;;;16.80;99.50;;;;;;5135503;27;20127;-84
2022/09/16 12:02:00;;;;;;;6.80;1.58;;;16.80;99.90;;;;;;5134425;27;20035;-83
2022/09/16 12:04:43;;;;;;;7.35;1.45;;;17.00;99.90;;;;;;5134252;27;20039;-77
2022/09/16 12:07:37;;;;;;;9.63;1.67;;;17.30;99.90;;;;;;5135886;27;20108;-82
2022/09/16 12:10:36;;;;;;;6.93;1.10;;;17.50;99.90;;;;;;5114499;27;20141;-80
2022/09/16 12:13:29;;;;;;;9.10;1.50;;;17.20;98.00;;;;;;5104152;27;20038;-84
2022/09/16 12:16:06;;;;;;;10.23;1.27;;;17.20;99.20;;;;;;5123290;27;20084;-80
2022/09/16 12:18:49;;;;;;;5.95;1.40;;;17.60;98.80;;;;;;5133578;27;20353;-84
2022/09/16 12:21:22;;;;;;;4.90;1.10;;;18.00;97.30;;;;;;5133906;27;20103;-82
2022/09/16 12:23:53;;;;;;;11.45;1.65;;;18.20;96.40;;;;;;5133668;27;20039;-78
2022/09/16 12:26:41;;;;;;;8.77;2.03;;;18.20;94.10;;;;;;5134020;27;20089;-80
2022/09/16 12:29:42;;;;;;;10.27;1.60;;;17.80;93.70;;;;;;5133660;27;20047;-76
2022/09/16 12:32:36;;;;;;;9.70;1.77;;;17.40;95.50;;;;;;5134198;27;20074;-71
2022/09/16 12:35:13;;;;;;;8.32;1.65;;;16.70;98.50;;;;;;5108341;27;20043;-72
2022/09/16 12:37:45;;;;;;;9.90;1.30;;;16.10;99.90;;;;;;5133092;27;20068;-75
2022/09/16 12:40:26;;;;;;;7.93;1.42;;;15.80;99.90;;;;;;5134152;27;20099;-74
2022/09/16 12:43:12;;;;;;;11.23;2.42;;;15.60;99.90;;;;;;5132887;27;20053;-76
2022/09/16 12:45:59;;;;;;;10.25;1.70;;;15.70;99.90;;;;;;5134641;27;20066;-77
2022/09/16 12:48:43;;;;;;;10.00;2.00;;;16.00;99.90;;;;;;5134532;27;20047;-78
2022/09/16 12:51:25;;;;;;;11.40;2.33;;;16.30;99.90;;;;;;5134935;27;20039;-80
2022/09/16 12:54:15;;;;;;;12.82;2.25;;;16.70;99.90;;;;;;5131640;27;20096;-83
2022/09/16 12:57:17;;;;;;;7.53;1.40;;;17.00;99.90;;;;;;5075780;28;20670;-81
2022/09/16 13:00:02;;;;;;;9.90;2.10;;;17.10;99.90;;;;;;5094069;28;20032;-81
2022/09/16 13:02:37;;;;;;;8.23;1.35;;;17.30;99.90;;;;;;5075899;28;20089;-75
2022/09/16 13:05:24;;;;;;;9.02;1.70;;;17.50;99.90;;;;;;5092376;28;20042;-81
2022/09/16 13:07:54;;;;;;;9.27;2.22;;;17.80;98.40;;;;;;5092626;28;20043;-82
2022/09/16 13:10:30;;;;;;;9.95;2.15;;;17.80;97.30;;;;;;5092317;28;20050;-77
2022/09/16 13:12:59;;;;;;;9.70;2.55;;;17.80;96.40;;;;;;5093328;28;20083;-75
2022/09/16 13:15:38;;;;;;;11.80;2.87;;;17.90;95.40;;;;;;5092657;28;20541;-78
2022/09/16 13:18:25;;;;;;;9.90;2.03;;;17.90;95.20;;;;;;5093717;28;20051;-81
2022/09/16 13:21:26;;;;;;;12.27;2.35;;;17.90;94.40;;;;;;5092001;28;20164;-78
2022/09/16 13:24:00;;;;;;;16.38;2.33;;;17.90;95.60;;;;;;5089672;28;20602;-79
2022/09/16 13:26:40;;;;;;;17.98;3.45;;;18.00;95.40;;;;;;5093855;28;20114;-82
2022/09/16 13:29:28;;;;;;;7.35;2.25;;;17.90;95.70;;;;;;5095521;28;20388;-78
2022/09/16 13:31:54;;;;;;;12.35;1.95;;;18.00;95.70;;;;;;5097649;28;20059;-77
2022/09/16 13:34:20;;;;;;;8.65;2.17;;;18.00;96.00;;;;;;5095661;28;20043;-76